createdAt,value
2019-02-28T00:01:46.280Z,17.98
2019-02-28T00:04:14.210Z,18.52
2019-02-28T00:06:44.073Z,19.10
2019-02-28T00:09:13.383Z,19.32
2019-02-28T00:11:42.158Z,18.07
2019-02-28T00:14:10.906Z,19.07
2019-02-28T00:16:39.568Z,19.25
2019-02-28T00:19:08.224Z,18.27
2019-02-28T00:21:37.318Z,19.07
2019-02-28T00:24:07.208Z,20.37
2019-02-28T00:26:35.948Z,18.90
2019-02-28T00:29:04.608Z,20.60
2019-02-28T00:31:33.270Z,21.25
2019-02-28T00:34:05.480Z,19.75
2019-02-28T00:36:33.265Z,21.40
2019-02-28T00:39:03.932Z,21.05
2019-02-28T00:41:33.858Z,19.82
2019-02-28T00:44:04.412Z,21.40
2019-02-28T00:46:32.855Z,21.02
2019-02-28T00:49:01.498Z,20.62
2019-02-28T00:51:30.778Z,20.68
2019-02-28T00:53:59.449Z,20.70
2019-02-28T00:56:28.107Z,20.52
2019-02-28T00:58:56.763Z,20.95
2019-02-28T01:01:25.429Z,20.72
2019-02-28T01:03:54.078Z,20.37
2019-02-28T01:06:23.052Z,22.20
2019-02-28T01:08:55.703Z,22.22
2019-02-28T01:11:22.220Z,22.62
2019-02-28T01:13:50.851Z,21.90
2019-02-28T01:16:20.117Z,21.20
2019-02-28T01:18:48.854Z,21.15
2019-02-28T01:21:17.503Z,22.60
2019-02-28T01:23:46.161Z,20.70
2019-02-28T01:26:14.819Z,24.05
2019-02-28T01:28:43.560Z,23.02
2019-02-28T01:31:13.167Z,23.85
2019-02-28T01:33:41.844Z,22.37
2019-02-28T01:36:12.279Z,23.05
2019-02-28T01:38:40.942Z,23.95
2019-02-28T01:41:11.199Z,22.93
2019-02-28T01:43:39.917Z,24.12
2019-02-28T01:46:08.586Z,23.22
2019-02-28T01:48:37.297Z,24.25
2019-02-28T01:51:05.965Z,23.20
2019-02-28T01:53:34.615Z,23.77
2019-02-28T01:56:03.313Z,23.77
2019-02-28T01:58:32.010Z,24.63
2019-02-28T02:01:00.710Z,24.25
2019-02-28T02:03:29.362Z,25.02
2019-02-28T02:05:58.009Z,23.57
2019-02-28T02:08:26.588Z,24.37
2019-02-28T02:10:56.124Z,25.82
2019-02-28T02:13:24.847Z,24.40
2019-02-28T02:15:53.479Z,25.30
2019-02-28T02:18:22.158Z,25.60
2019-02-28T02:20:50.791Z,25.55
2019-02-28T02:23:19.443Z,24.30
2019-02-28T02:25:48.122Z,24.23
2019-02-28T02:28:16.787Z,25.50
2019-02-28T02:30:50.414Z,24.77
2019-02-28T02:33:15.828Z,25.57
2019-02-28T02:35:44.606Z,25.35
2019-02-28T02:38:13.349Z,24.23
2019-02-28T02:40:42.100Z,24.92
2019-02-28T02:43:10.824Z,23.95
2019-02-28T02:45:43.396Z,24.02
2019-02-28T02:48:09.918Z,25.88
2019-02-28T02:50:38.641Z,24.18
2019-02-28T02:53:07.305Z,26.02
2019-02-28T02:55:36.058Z,24.35
2019-02-28T02:58:04.739Z,24.92
2019-02-28T03:00:33.372Z,25.02
2019-02-28T03:03:06.147Z,25.52
2019-02-28T03:05:35.730Z,25.10
2019-02-28T03:08:02.895Z,25.30
2019-02-28T03:10:31.614Z,24.27
2019-02-28T03:13:04.495Z,26.05
2019-02-28T03:15:30.678Z,26.65
2019-02-28T03:17:59.329Z,25.32
2019-02-28T03:20:27.999Z,26.42
2019-02-28T03:22:56.742Z,25.43
2019-02-28T03:25:28.338Z,26.35
2019-02-28T03:27:56.818Z,26.57
2019-02-28T03:30:31.029Z,26.25
2019-02-28T03:32:56.006Z,25.90
2019-02-28T03:35:24.690Z,25.37
2019-02-28T03:37:53.427Z,26.00
2019-02-28T03:40:22.144Z,25.70
2019-02-28T03:42:50.871Z,27.02
2019-02-28T03:45:19.510Z,24.10
2019-02-28T03:47:48.253Z,25.23
2019-02-28T03:50:16.980Z,25.92
2019-02-28T03:52:45.674Z,25.40
2019-02-28T03:55:14.519Z,24.23
2019-02-28T03:57:43.342Z,24.95
2019-02-28T04:00:15.745Z,26.20
2019-02-28T04:02:44.474Z,25.65
2019-02-28T04:05:13.202Z,24.23
2019-02-28T04:07:41.876Z,25.77
2019-02-28T04:10:10.669Z,26.07
2019-02-28T04:12:44.980Z,24.80
2019-02-28T04:15:11.323Z,24.40
2019-02-28T04:17:40.184Z,25.72
2019-02-28T04:20:08.941Z,25.80
2019-02-28T04:22:37.580Z,25.08
2019-02-28T04:25:06.260Z,26.02
2019-02-28T04:27:40.457Z,24.50
2019-02-28T04:30:08.417Z,24.30
2019-02-28T04:32:37.219Z,24.60
2019-02-28T04:35:06.041Z,25.12
2019-02-28T04:37:34.717Z,24.72
2019-02-28T04:40:03.414Z,25.80
2019-02-28T04:42:32.122Z,25.80
2019-02-28T04:45:03.353Z,24.18
2019-02-28T04:47:31.983Z,23.67
2019-02-28T04:50:00.642Z,23.83
2019-02-28T04:52:29.326Z,25.25
2019-02-28T04:54:59.375Z,24.55
2019-02-28T04:57:28.381Z,25.15
2019-02-28T04:59:57.021Z,26.55
2019-02-28T05:02:25.709Z,23.77
2019-02-28T05:04:54.344Z,24.67
2019-02-28T05:07:23.167Z,24.43
2019-02-28T05:09:51.833Z,25.32
2019-02-28T05:12:20.667Z,23.67
2019-02-28T05:14:49.340Z,25.30
2019-02-28T05:17:19.313Z,25.72
2019-02-28T05:19:48.426Z,25.90
2019-02-28T05:22:17.139Z,24.77
2019-02-28T05:24:45.827Z,26.07
2019-02-28T05:27:14.575Z,23.38
2019-02-28T05:29:44.001Z,24.98
2019-02-28T05:32:13.467Z,26.73
2019-02-28T05:34:42.131Z,26.00
2019-02-28T05:37:12.528Z,25.40
2019-02-28T05:39:41.169Z,25.30
2019-02-28T05:42:09.922Z,26.77
2019-02-28T05:44:40.422Z,26.87
2019-02-28T05:47:10.605Z,25.97
2019-02-28T05:49:40.742Z,26.40
2019-02-28T05:52:09.652Z,26.25
2019-02-28T05:54:38.311Z,25.72
2019-02-28T05:57:08.090Z,26.42
2019-02-28T05:59:37.346Z,25.60
2019-02-28T06:02:06.029Z,25.97
2019-02-28T06:04:37.033Z,26.82
2019-02-28T06:07:06.547Z,26.87
2019-02-28T06:09:36.830Z,26.05
2019-02-28T06:12:06.683Z,26.23
2019-02-28T06:14:35.963Z,26.52
2019-02-28T06:17:06.947Z,26.42
2019-02-28T06:19:35.633Z,26.25
2019-02-28T06:22:04.607Z,27.73
2019-02-28T06:24:33.383Z,27.17
2019-02-28T06:27:03.643Z,27.40
2019-02-28T06:29:32.652Z,27.93
2019-02-28T06:32:01.429Z,29.00
2019-02-28T06:34:30.211Z,27.67
2019-02-28T06:37:03.149Z,28.80
2019-02-28T06:39:29.284Z,28.95
2019-02-28T06:41:57.951Z,28.05
2019-02-28T06:44:27.017Z,28.52
2019-02-28T06:46:56.364Z,27.95
2019-02-28T06:49:24.989Z,28.10
2019-02-28T06:51:53.706Z,28.65
2019-02-28T06:54:22.362Z,29.52
2019-02-28T06:56:54.086Z,29.02
2019-02-28T06:59:22.646Z,28.95
2019-02-28T07:01:56.643Z,28.73
2019-02-28T07:04:21.629Z,29.63
2019-02-28T07:06:50.296Z,30.90
2019-02-28T07:09:18.979Z,29.10
2019-02-28T07:11:47.683Z,30.52
2019-02-28T07:14:16.360Z,29.63
2019-02-28T07:16:45.114Z,29.40
2019-02-28T07:19:13.789Z,29.52
2019-02-28T07:21:43.915Z,30.97
2019-02-28T07:24:12.925Z,30.65
2019-02-28T07:26:41.652Z,32.93
2019-02-28T07:29:12.052Z,31.75
2019-02-28T07:31:40.826Z,32.08
2019-02-28T07:34:09.542Z,32.17
2019-02-28T07:36:38.288Z,34.50
2019-02-28T07:39:07.160Z,33.28
2019-02-28T07:41:35.911Z,35.30
2019-02-28T07:44:04.651Z,34.98
2019-02-28T07:46:33.426Z,35.40
2019-02-28T07:49:02.099Z,34.18
2019-02-28T07:51:30.844Z,34.53
2019-02-28T07:54:01.513Z,35.17
2019-02-28T07:56:29.893Z,34.45
2019-02-28T07:58:58.642Z,33.33
2019-02-28T08:01:27.727Z,33.85
2019-02-28T08:03:57.305Z,34.30
2019-02-28T08:06:26.019Z,33.15
2019-02-28T08:08:54.766Z,34.45
2019-02-28T08:11:23.467Z,32.48
2019-02-28T08:13:52.131Z,32.85
2019-02-28T08:16:20.823Z,32.17
2019-02-28T08:18:51.169Z,33.73
2019-02-28T08:21:19.876Z,32.30
2019-02-28T08:23:48.575Z,32.25
2019-02-28T08:26:18.868Z,30.45
2019-02-28T08:28:47.675Z,27.35
2019-02-28T08:31:16.372Z,27.80
2019-02-28T08:33:48.169Z,27.20
2019-02-28T08:36:15.438Z,26.27
2019-02-28T08:38:44.212Z,26.37
2019-02-28T08:41:12.957Z,26.60
2019-02-28T08:43:44.664Z,27.00
2019-02-28T08:46:13.739Z,25.97
2019-02-28T08:48:42.713Z,25.62
2019-02-28T08:51:12.528Z,25.68
2019-02-28T08:53:41.290Z,27.32
2019-02-28T08:56:10.996Z,26.17
2019-02-28T08:58:42.664Z,27.40
2019-02-28T09:01:11.474Z,25.92
2019-02-28T09:03:40.657Z,25.97
2019-02-28T09:06:09.547Z,25.25
2019-02-28T09:08:38.270Z,25.23
2019-02-28T09:11:07.362Z,23.15
2019-02-28T09:13:36.091Z,23.35
2019-02-28T09:16:05.071Z,22.32
2019-02-28T09:18:34.324Z,22.95
2019-02-28T09:21:03.098Z,22.93
2019-02-28T09:23:34.404Z,23.62
2019-02-28T09:26:03.482Z,22.82
2019-02-28T09:28:32.342Z,21.93
2019-02-28T09:31:01.410Z,21.15
2019-02-28T09:33:31.465Z,21.10
2019-02-28T09:36:01.289Z,20.88
2019-02-28T09:38:29.965Z,19.92
2019-02-28T09:41:01.344Z,19.20
2019-02-28T09:43:28.943Z,19.32
2019-02-28T09:45:57.610Z,19.42
2019-02-28T09:48:34.007Z,19.45
2019-02-28T09:51:04.048Z,18.10
2019-02-28T09:53:32.696Z,18.65
2019-02-28T09:56:01.445Z,18.95
2019-02-28T09:58:30.117Z,19.10
2019-02-28T10:00:58.940Z,18.05
2019-02-28T10:03:27.638Z,18.42
2019-02-28T10:05:56.342Z,18.40
2019-02-28T10:08:24.997Z,17.15
2019-02-28T10:10:55.799Z,16.50
2019-02-28T10:13:24.153Z,15.95
2019-02-28T10:15:52.896Z,15.50
2019-02-28T10:18:21.627Z,16.42
2019-02-28T10:20:50.382Z,16.10
2019-02-28T10:23:21.443Z,14.85
2019-02-28T10:25:49.432Z,14.75
2019-02-28T10:28:18.200Z,15.70
2019-02-28T10:30:47.180Z,14.53
2019-02-28T10:33:18.079Z,14.87
2019-02-28T10:35:46.855Z,15.05
2019-02-28T10:38:15.556Z,14.18
2019-02-28T10:40:44.319Z,14.28
2019-02-28T10:43:15.493Z,14.07
2019-02-28T10:45:43.383Z,14.68
2019-02-28T10:48:12.101Z,14.28
2019-02-28T10:50:40.854Z,15.15
2019-02-28T10:53:09.582Z,15.28
2019-02-28T10:55:38.277Z,14.58
2019-02-28T10:58:07.097Z,13.72
2019-02-28T11:00:36.512Z,15.15
2019-02-28T11:03:05.440Z,14.33
2019-02-28T11:05:34.333Z,14.13
2019-02-28T11:08:03.497Z,13.68
2019-02-28T11:10:35.521Z,15.10
2019-02-28T11:13:03.489Z,14.53
2019-02-28T11:15:32.197Z,13.93
2019-02-28T11:18:00.871Z,12.30
2019-02-28T11:20:29.642Z,13.45
2019-02-28T11:22:58.318Z,13.13
2019-02-28T11:25:27.378Z,12.78
2019-02-28T11:27:56.137Z,11.88
2019-02-28T11:30:24.946Z,11.65
2019-02-28T11:32:53.665Z,11.50
2019-02-28T11:35:23.267Z,12.35
2019-02-28T11:37:52.620Z,12.63
2019-02-28T11:40:21.959Z,11.55
2019-02-28T11:42:50.632Z,11.93
2019-02-28T11:45:22.050Z,12.47
2019-02-28T11:47:51.108Z,11.63
2019-02-28T11:50:19.772Z,12.13
2019-02-28T11:52:48.461Z,12.00
2019-02-28T11:55:20.374Z,11.70
2019-02-28T11:57:48.561Z,11.08
2019-02-28T12:00:19.134Z,11.12
2019-02-28T12:02:53.271Z,10.35
2019-02-28T12:05:18.291Z,10.93
2019-02-28T12:07:47.054Z,11.00
2019-02-28T12:10:15.776Z,10.95
2019-02-28T12:12:45.367Z,11.00
2019-02-28T12:15:14.596Z,10.65
2019-02-28T12:17:43.297Z,10.30
2019-02-28T12:20:12.394Z,11.28
2019-02-28T12:22:43.990Z,10.80
2019-02-28T12:25:13.135Z,10.98
2019-02-28T12:27:41.822Z,11.88
2019-02-28T12:30:12.122Z,10.75
2019-02-28T12:32:43.341Z,12.35
2019-02-28T12:35:11.286Z,11.70
2019-02-28T12:37:39.962Z,11.05
2019-02-28T12:40:10.293Z,12.28
2019-02-28T12:42:39.820Z,10.50
2019-02-28T12:45:10.104Z,10.63
2019-02-28T12:47:41.591Z,10.28
2019-02-28T12:50:09.378Z,10.48
2019-02-28T12:52:38.088Z,9.80
2019-02-28T12:55:07.738Z,11.38
2019-02-28T12:57:36.382Z,11.75
2019-02-28T13:00:05.696Z,11.15
2019-02-28T13:02:35.059Z,11.15
2019-02-28T13:05:04.111Z,10.10
2019-02-28T13:07:33.937Z,10.32
2019-02-28T13:10:04.026Z,10.72
2019-02-28T13:12:32.876Z,10.98
2019-02-28T13:15:01.570Z,10.58
2019-02-28T13:17:31.646Z,10.05
2019-02-28T13:20:00.701Z,9.88
2019-02-28T13:22:29.419Z,9.43
2019-02-28T13:24:58.101Z,9.05
2019-02-28T13:27:26.774Z,8.85
2019-02-28T13:29:55.516Z,9.95
2019-02-28T13:32:24.171Z,9.45
2019-02-28T13:34:52.811Z,10.70
2019-02-28T13:37:21.598Z,10.03
2019-02-28T13:39:50.334Z,10.82
2019-02-28T13:42:19.040Z,9.95
2019-02-28T13:44:47.788Z,10.48
2019-02-28T13:47:17.507Z,10.23
2019-02-28T13:49:46.634Z,10.65
2019-02-28T13:52:20.302Z,10.70
2019-02-28T13:54:45.801Z,10.72
2019-02-28T13:57:14.547Z,11.00
2019-02-28T13:59:43.262Z,11.33
2019-02-28T14:02:13.611Z,11.12
2019-02-28T14:04:42.433Z,10.93
2019-02-28T14:07:11.135Z,11.33
2019-02-28T14:09:39.853Z,11.68
2019-02-28T14:12:08.715Z,10.80
2019-02-28T14:14:38.900Z,11.50
2019-02-28T14:17:07.885Z,11.03
2019-02-28T14:19:36.589Z,10.55
2019-02-28T14:22:05.358Z,10.78
2019-02-28T14:24:34.260Z,10.05
2019-02-28T14:27:02.927Z,10.80
2019-02-28T14:29:31.689Z,9.88
2019-02-28T14:32:00.417Z,10.85
2019-02-28T14:34:29.202Z,11.55
2019-02-28T14:36:57.855Z,11.27
2019-02-28T14:39:26.523Z,11.28
2019-02-28T14:41:55.220Z,11.63
2019-02-28T14:44:23.918Z,11.20
2019-02-28T14:46:53.283Z,11.15
2019-02-28T14:49:22.789Z,10.75
2019-02-28T14:51:51.491Z,10.35
2019-02-28T14:54:21.926Z,10.08
2019-02-28T14:56:50.588Z,10.13
2019-02-28T14:59:19.320Z,10.08
2019-02-28T15:01:49.546Z,9.38
2019-02-28T15:04:18.458Z,9.73
2019-02-28T15:06:47.375Z,9.25
2019-02-28T15:09:17.043Z,9.73
2019-02-28T15:11:46.835Z,9.78
2019-02-28T15:14:16.204Z,10.58
2019-02-28T15:16:44.983Z,10.00
2019-02-28T15:19:13.696Z,10.00
2019-02-28T15:21:42.746Z,9.83
2019-02-28T15:24:13.106Z,9.73
2019-02-28T15:26:41.868Z,10.05
2019-02-28T15:29:10.547Z,10.08
2019-02-28T15:31:40.452Z,9.28
2019-02-28T15:34:09.260Z,8.80
2019-02-28T15:36:37.964Z,7.83
2019-02-28T15:39:06.625Z,7.65
2019-02-28T15:41:35.428Z,8.03
2019-02-28T15:44:05.169Z,7.50
2019-02-28T15:46:35.878Z,7.30
2019-02-28T15:49:06.554Z,7.08
2019-02-28T15:51:35.587Z,7.25
2019-02-28T15:54:04.478Z,6.90
2019-02-28T15:56:33.280Z,6.70
2019-02-28T15:59:03.415Z,7.10
2019-02-28T16:01:33.099Z,5.83
2019-02-28T16:04:01.959Z,5.85
2019-02-28T16:06:30.703Z,5.20
2019-02-28T16:08:59.456Z,4.72
2019-02-28T16:11:29.235Z,5.55
2019-02-28T16:14:00.486Z,5.40
2019-02-28T16:16:28.387Z,5.10
2019-02-28T16:18:57.151Z,4.92
2019-02-28T16:21:25.837Z,4.85
2019-02-28T16:23:54.495Z,5.20
2019-02-28T16:26:23.182Z,5.10
2019-02-28T16:28:51.878Z,4.58
2019-02-28T16:31:20.624Z,4.70
2019-02-28T16:33:49.366Z,5.20
2019-02-28T16:36:18.138Z,5.30
2019-02-28T16:38:46.811Z,4.70
2019-02-28T16:41:15.526Z,5.20
2019-02-28T16:43:44.262Z,5.40
2019-02-28T16:46:15.469Z,5.40
2019-02-28T16:48:44.502Z,5.17
2019-02-28T16:51:13.170Z,5.28
2019-02-28T16:53:41.850Z,5.12
2019-02-28T16:56:10.726Z,5.17
2019-02-28T16:58:39.401Z,5.30
2019-02-28T17:01:08.171Z,4.58
2019-02-28T17:03:38.414Z,4.67
2019-02-28T17:06:07.342Z,4.58
2019-02-28T17:08:42.904Z,5.03
2019-02-28T17:11:11.583Z,5.08
2019-02-28T17:13:44.816Z,4.67
2019-02-28T17:16:23.006Z,5.28
2019-02-28T17:18:53.597Z,4.90
2019-02-28T17:21:23.733Z,5.28
2019-02-28T17:23:52.501Z,5.92
2019-02-28T17:26:31.060Z,5.90
2019-02-28T17:29:08.653Z,5.83
2019-02-28T17:31:48.244Z,5.58
2019-02-28T17:34:23.715Z,5.08
2019-02-28T17:36:49.398Z,5.90
2019-02-28T17:39:18.090Z,5.05
2019-02-28T17:41:46.893Z,5.53
2019-02-28T17:44:24.362Z,5.60
2019-02-28T17:46:53.137Z,5.42
2019-02-28T17:49:33.902Z,5.42
2019-02-28T17:52:12.421Z,5.85
2019-02-28T17:55:03.298Z,6.62
2019-02-28T17:57:53.556Z,5.75
2019-02-28T18:00:42.184Z,5.42
2019-02-28T18:03:17.240Z,5.90
2019-02-28T18:06:14.255Z,6.33
2019-02-28T18:08:55.015Z,6.53
2019-02-28T18:11:42.820Z,6.33
2019-02-28T18:14:18.117Z,5.83
2019-02-28T18:17:12.034Z,6.05
2019-02-28T18:20:05.932Z,6.28
2019-02-28T18:22:42.791Z,6.30
2019-02-28T18:25:51.965Z,6.20
2019-02-28T18:28:50.860Z,5.70
2019-02-28T18:31:22.278Z,5.10
2019-02-28T18:33:52.312Z,4.50
2019-02-28T18:36:23.242Z,4.60
2019-02-28T18:38:52.931Z,4.90
2019-02-28T18:41:21.749Z,4.83
2019-02-28T18:43:50.523Z,5.08
2019-02-28T18:46:19.313Z,4.85
2019-02-28T18:48:51.165Z,5.10
2019-02-28T18:51:20.598Z,5.40
2019-02-28T18:53:49.201Z,4.95
2019-02-28T18:56:18.017Z,5.83
2019-02-28T18:58:46.965Z,5.70
2019-02-28T19:01:15.708Z,5.78
2019-02-28T19:03:44.593Z,5.12
2019-02-28T19:06:16.157Z,6.17
2019-02-28T19:08:45.142Z,5.05
2019-02-28T19:11:14.175Z,5.83
2019-02-28T19:13:43.183Z,5.55
2019-02-28T19:16:12.800Z,5.12
2019-02-28T19:18:41.688Z,5.53
2019-02-28T19:21:11.611Z,6.20
2019-02-28T19:23:40.443Z,6.30
2019-02-28T19:26:12.498Z,6.28
2019-02-28T19:28:41.503Z,6.60
2019-02-28T19:31:10.559Z,6.17
2019-02-28T19:33:39.537Z,5.87
2019-02-28T19:36:08.319Z,6.17
2019-02-28T19:38:37.585Z,5.92
2019-02-28T19:41:06.819Z,6.12
2019-02-28T19:43:35.760Z,5.78
2019-02-28T19:46:04.444Z,5.75
2019-02-28T19:48:35.087Z,5.87
2019-02-28T19:51:04.084Z,4.85
2019-02-28T19:53:32.907Z,4.80
2019-02-28T19:56:01.764Z,4.70
2019-02-28T19:58:30.596Z,4.75
2019-02-28T20:00:59.430Z,4.33
2019-02-28T20:03:28.215Z,4.03
2019-02-28T20:05:57.038Z,4.72
2019-02-28T20:08:25.807Z,4.10
2019-02-28T20:10:54.603Z,4.70
2019-02-28T20:13:23.508Z,4.58
2019-02-28T20:15:52.468Z,4.08
2019-02-28T20:18:21.258Z,4.35
2019-02-28T20:20:50.536Z,5.05
2019-02-28T20:23:19.376Z,4.50
2019-02-28T20:25:48.134Z,4.30
2019-02-28T20:28:16.837Z,5.05
2019-02-28T20:30:47.642Z,5.40
2019-02-28T20:33:16.486Z,5.70
2019-02-28T20:35:45.248Z,6.03
2019-02-28T20:38:14.659Z,5.87
2019-02-28T20:40:43.767Z,5.97
2019-02-28T20:43:12.500Z,6.85
2019-02-28T20:45:41.307Z,5.60
2019-02-28T20:48:10.003Z,5.70
2019-02-28T20:50:39.992Z,5.95
2019-02-28T20:53:08.931Z,6.62
2019-02-28T20:55:37.770Z,6.15
2019-02-28T20:58:06.559Z,5.30
2019-02-28T21:00:35.360Z,5.35
2019-02-28T21:03:04.244Z,6.10
2019-02-28T21:05:33.108Z,5.37
2019-02-28T21:08:01.778Z,5.10
2019-02-28T21:10:32.580Z,4.90
2019-02-28T21:13:01.249Z,5.20
2019-02-28T21:15:30.169Z,5.28
2019-02-28T21:17:58.943Z,4.78
2019-02-28T21:20:28.165Z,5.03
2019-02-28T21:22:56.992Z,4.67
2019-02-28T21:25:25.774Z,4.50
2019-02-28T21:27:54.655Z,5.08
2019-02-28T21:30:23.409Z,4.33
2019-02-28T21:32:52.448Z,5.08
2019-02-28T21:35:22.696Z,4.10
2019-02-28T21:37:51.758Z,4.85
2019-02-28T21:40:20.925Z,4.28
2019-02-28T21:42:50.001Z,3.92
2019-02-28T21:45:18.816Z,4.30
2019-02-28T21:47:47.716Z,4.47
2019-02-28T21:50:17.878Z,4.58
2019-02-28T21:52:46.720Z,4.37
2019-02-28T21:55:15.682Z,4.83
2019-02-28T21:57:44.416Z,4.65
2019-02-28T22:00:14.379Z,4.50
2019-02-28T22:02:44.785Z,4.50
2019-02-28T22:05:13.474Z,4.20
2019-02-28T22:07:44.490Z,5.03
2019-02-28T22:10:12.866Z,4.60
2019-02-28T22:12:41.779Z,4.78
2019-02-28T22:15:11.485Z,4.92
2019-02-28T22:17:40.275Z,5.17
2019-02-28T22:20:10.294Z,5.10
2019-02-28T22:22:39.313Z,5.40
2019-02-28T22:25:08.750Z,5.40
2019-02-28T22:27:37.485Z,5.47
2019-02-28T22:30:27.878Z,5.70
2019-02-28T22:32:58.345Z,5.62
2019-02-28T22:35:39.858Z,5.47
2019-02-28T22:38:08.614Z,6.37
2019-02-28T22:40:37.336Z,6.10
2019-02-28T22:43:06.202Z,5.75
2019-02-28T22:45:34.963Z,5.58
2019-02-28T22:48:03.745Z,6.10
2019-02-28T22:50:32.637Z,5.83
2019-02-28T22:53:01.411Z,5.90
2019-02-28T22:55:30.118Z,6.37
2019-02-28T22:57:58.852Z,5.95
2019-02-28T23:00:58.435Z,6.15
2019-02-28T23:03:28.302Z,6.40
2019-02-28T23:05:57.022Z,7.30
2019-02-28T23:08:27.348Z,6.08
2019-02-28T23:10:56.121Z,6.55
2019-02-28T23:13:24.778Z,6.85
2019-02-28T23:15:53.558Z,7.10
2019-02-28T23:18:22.385Z,7.30
2019-02-28T23:20:51.053Z,7.30
2019-02-28T23:23:19.718Z,7.17
2019-02-28T23:25:48.403Z,6.83
2019-02-28T23:28:41.965Z,7.83
2019-02-28T23:31:38.672Z,7.95
2019-02-28T23:34:09.708Z,7.15
2019-02-28T23:36:38.506Z,7.17
2019-02-28T23:39:07.362Z,7.50
2019-02-28T23:41:37.812Z,7.90
2019-02-28T23:44:06.693Z,8.25
2019-02-28T23:46:35.388Z,8.23
2019-02-28T23:49:04.031Z,8.75
2019-02-28T23:51:32.749Z,8.98
2019-02-28T23:54:01.484Z,9.30
2019-02-28T23:56:30.192Z,8.73
2019-02-28T23:58:58.880Z,8.88
